Jonestown, MS (38639)

8:47 AM CDT on July 25, 2014 (GMT -0500)
Fletcher (KCKM) Elev 174 ft | 34.30 °N, 90.51 °W | Change Station

Current weather conditions updated 12 minutes ago

Clear
Clear
72 °F
Feels Like 72 °F
N
0
Wind Variable Wind from North

Today is forecast to be Warmer than yesterday.

Today
High -- | Low -- °F
--% Chance of Precip.
Yesterday
High -- | Low -- °F
Precip. -- in
6:07 AM 8:08 PM
Waning Crescent, 2% visible
Pressure 30.08 in
Visibility 10.0 miles
Clouds Clear
Dew Point 68 °F
Humidity 88%
Rainfall 0.00 in
Snow Depth Not available.
UV 3 out of 12
Pollen 5.40 out of 12
Air Quality Not available.
Flu Activity Not available.
METAR KCKM 251335Z AUTO 00000KT 10SM CLR 22/20 A3008 RMK AO1

More Conditions Fewer Conditions

Pressure 30.08 in
Visibility 10.0 miles
Clouds Clear
Dew Point 68 °F
Humidity 88%
Rainfall 0.00 in
Snow Depth Not available.
UV 3 out of 12
Pollen 5.40 out of 12
Air Quality Not available.
Flu Activity Not available.
METAR KCKM 251335Z AUTO 00000KT 10SM CLR 22/20 A3008 RMK AO1

More Conditions Fewer Conditions

10-Day Weather Forecast

Almanac

Astronomy

Jul. 25, 2014 Rise Set
Actual Time 6:07 AM CDT 8:08 PM CDT
Civil Twilight 5:39 AM CDT 8:36 PM CDT
Nautical Twilight 5:05 AM CDT 9:10 PM CDT
Astronomical Twilight 4:28 AM CDT 9:46 PM CDT
Moon 5:05 AM CDT 7:08 PM CDT
Length of Visible Light 14h 57m
Length of Day
14h 01m
Tomorrow will be 1m 25s shorter.
Waning Crescent, 2% of the Moon is Illuminated
Today
Waning Crescent
Jul 26
New
Aug 3
First Quarter
Aug 10
Full
Aug 17
Last Quarter

Today's Extremes

State Highs State Lows

Community

WunderPhotos

Upload Photos

1,737,324 photos uploaded!

Nearby

Snow Depth

Station Depth Elevation
No new snow has been reported.

Earthquake Activity

City Distance Mag. Time & Date
No recent earthquake activity has been reported nearby.
Minimum magnitude displayed is 2.5.

Coastal Water Temperatures

Place Temperature
No Stations Reporting

Nearby Weather Stations

Station Location Temp. Heat Index Dew Point Humidity Wind Precip. Elev Updated Type
Clarksdale, Clarksdale, MS 72.9 °F 71 °F 70 °F 89% NE  at  0.0 mph 0.00 in / hr 164 ft 8:47 AM CDT Rapid Fire
MesoWest VANCE , Rome, MS 63 °F - 62 °F 94% East  at  0 mph 0.00 in / hr 149 ft 7:00 AM CDT MADIS
MesoWest TUNICA , Tunica, MS 64 °F - 64 °F 99% North  at  0 mph 0.00 in / hr 259 ft 7:00 AM CDT MADIS

Show More Stations Show Fewer Stations